sensor_id;sensor_type;location;lat;lon;timestamp;pressure;altitude;pressure_sealevel;temperature;humidity
60246;BME280;46107;53.356;-1.524;2023-02-24T00:02:12;98973.56;;;1.22;88.91
60246;BME280;46107;53.356;-1.524;2023-02-24T00:04:40;98978.42;;;0.42;95.30
60246;BME280;46107;53.356;-1.524;2023-02-24T00:07:09;98965.62;;;0.95;93.22
60246;BME280;46107;53.356;-1.524;2023-02-24T00:09:37;98971.95;;;0.64;95.98
60246;BME280;46107;53.356;-1.524;2023-02-24T00:12:08;98971.16;;;0.72;95.59
60246;BME280;46107;53.356;-1.524;2023-02-24T00:14:38;98958.00;;;1.00;95.25
60246;BME280;46107;53.356;-1.524;2023-02-24T00:17:07;98957.82;;;1.09;93.05
60246;BME280;46107;53.356;-1.524;2023-02-24T00:19:37;98956.15;;;2.05;90.46
60246;BME280;46107;53.356;-1.524;2023-02-24T00:22:06;98942.55;;;1.14;94.61
60246;BME280;46107;53.356;-1.524;2023-02-24T00:24:35;98943.81;;;1.77;89.04
60246;BME280;46107;53.356;-1.524;2023-02-24T00:27:04;98938.38;;;2.02;91.26
60246;BME280;46107;53.356;-1.524;2023-02-24T00:29:33;98944.73;;;1.68;90.75
60246;BME280;46107;53.356;-1.524;2023-02-24T00:32:00;98934.25;;;1.66;92.79
60246;BME280;46107;53.356;-1.524;2023-02-24T00:34:29;98932.29;;;1.92;91.79
60246;BME280;46107;53.356;-1.524;2023-02-24T00:36:58;98930.36;;;0.88;95.67
60246;BME280;46107;53.356;-1.524;2023-02-24T00:39:27;98920.30;;;1.92;91.89
60246;BME280;46107;53.356;-1.524;2023-02-24T00:41:55;98910.51;;;1.41;92.25
60246;BME280;46107;53.356;-1.524;2023-02-24T00:44:23;98908.54;;;1.39;95.74
60246;BME280;46107;53.356;-1.524;2023-02-24T00:46:51;98908.59;;;1.81;91.98
60246;BME280;46107;53.356;-1.524;2023-02-24T00:49:19;98909.57;;;1.93;93.70
60246;BME280;46107;53.356;-1.524;2023-02-24T00:51:48;98901.48;;;1.81;93.29
60246;BME280;46107;53.356;-1.524;2023-02-24T00:54:16;98896.16;;;1.73;93.05
60246;BME280;46107;53.356;-1.524;2023-02-24T00:56:44;98891.73;;;1.51;96.81
60246;BME280;46107;53.356;-1.524;2023-02-24T00:59:14;98884.15;;;0.82;99.90
60246;BME280;46107;53.356;-1.524;2023-02-24T01:01:42;98876.83;;;1.36;99.89
60246;BME280;46107;53.356;-1.524;2023-02-24T01:04:10;98877.84;;;1.03;97.97
60246;BME280;46107;53.356;-1.524;2023-02-24T01:06:40;98872.44;;;1.86;96.48
60246;BME280;46107;53.356;-1.524;2023-02-24T01:09:09;98858.79;;;1.29;97.46
60246;BME280;46107;53.356;-1.524;2023-02-24T01:11:37;98856.04;;;1.92;95.66
60246;BME280;46107;53.356;-1.524;2023-02-24T01:14:08;98854.66;;;1.58;96.51
60246;BME280;46107;53.356;-1.524;2023-02-24T01:16:36;98852.73;;;1.39;99.34
60246;BME280;46107;53.356;-1.524;2023-02-24T01:19:04;98842.41;;;1.41;97.45
60246;BME280;46107;53.356;-1.524;2023-02-24T01:21:32;98840.66;;;1.64;97.80
60246;BME280;46107;53.356;-1.524;2023-02-24T01:24:00;98842.64;;;1.95;97.30
60246;BME280;46107;53.356;-1.524;2023-02-24T01:26:27;98829.03;;;1.20;100.00
60246;BME280;46107;53.356;-1.524;2023-02-24T01:28:55;98835.59;;;1.74;100.00
60246;BME280;46107;53.356;-1.524;2023-02-24T01:31:23;98828.63;;;1.80;99.64
60246;BME280;46107;53.356;-1.524;2023-02-24T01:33:51;98818.67;;;1.54;100.00
60246;BME280;46107;53.356;-1.524;2023-02-24T01:36:21;98824.60;;;1.37;100.00
60246;BME280;46107;53.356;-1.524;2023-02-24T01:38:48;98818.07;;;1.57;100.00
60246;BME280;46107;53.356;-1.524;2023-02-24T01:41:19;98818.22;;;1.17;100.00
60246;BME280;46107;53.356;-1.524;2023-02-24T01:44:05;98814.37;;;1.43;100.00
60246;BME280;46107;53.356;-1.524;2023-02-24T01:46:34;98809.77;;;1.25;100.00
60246;BME280;46107;53.356;-1.524;2023-02-24T01:49:06;98804.04;;;1.82;100.00
60246;BME280;46107;53.356;-1.524;2023-02-24T01:51:39;98802.58;;;2.14;100.00
60246;BME280;46107;53.356;-1.524;2023-02-24T01:54:09;98807.51;;;2.71;100.00
60246;BME280;46107;53.356;-1.524;2023-02-24T01:56:39;98801.95;;;2.46;100.00
60246;BME280;46107;53.356;-1.524;2023-02-24T01:59:08;98796.54;;;1.78;99.53
60246;BME280;46107;53.356;-1.524;2023-02-24T02:01:37;98798.37;;;2.64;98.63
60246;BME280;46107;53.356;-1.524;2023-02-24T02:04:13;98802.42;;;2.99;97.05
60246;BME280;46107;53.356;-1.524;2023-02-24T02:06:42;98788.41;;;2.33;98.65
60246;BME280;46107;53.356;-1.524;2023-02-24T02:09:11;98789.64;;;2.10;100.00
60246;BME280;46107;53.356;-1.524;2023-02-24T02:11:39;98791.78;;;1.87;100.00
60246;BME280;46107;53.356;-1.524;2023-02-24T02:14:08;98776.28;;;2.65;98.91
60246;BME280;46107;53.356;-1.524;2023-02-24T02:16:44;98776.47;;;2.23;100.00
60246;BME280;46107;53.356;-1.524;2023-02-24T02:22:00;98776.89;;;2.55;100.00
60246;BME280;46107;53.356;-1.524;2023-02-24T02:24:41;98768.02;;;2.45;100.00
60246;BME280;46107;53.356;-1.524;2023-02-24T02:27:32;98762.56;;;2.27;98.70
60246;BME280;46107;53.356;-1.524;2023-02-24T02:30:19;98750.07;;;2.00;100.00
60246;BME280;46107;53.356;-1.524;2023-02-24T02:33:08;98758.82;;;2.09;100.00
60246;BME280;46107;53.356;-1.524;2023-02-24T02:35:44;98767.63;;;1.60;100.00
60246;BME280;46107;53.356;-1.524;2023-02-24T02:38:21;98765.34;;;2.41;100.00
60246;BME280;46107;53.356;-1.524;2023-02-24T02:40:57;98761.62;;;1.97;100.00
60246;BME280;46107;53.356;-1.524;2023-02-24T02:43:30;98756.41;;;2.11;100.00
60246;BME280;46107;53.356;-1.524;2023-02-24T02:46:06;98747.43;;;2.37;100.00
60246;BME280;46107;53.356;-1.524;2023-02-24T02:48:42;98733.95;;;3.11;97.97
60246;BME280;46107;53.356;-1.524;2023-02-24T02:51:15;98723.45;;;2.87;98.36
60246;BME280;46107;53.356;-1.524;2023-02-24T02:53:51;98726.29;;;2.45;100.00
60246;BME280;46107;53.356;-1.524;2023-02-24T02:56:24;98715.29;;;2.39;100.00
60246;BME280;46107;53.356;-1.524;2023-02-24T02:58:56;98711.98;;;2.94;100.00
60246;BME280;46107;53.356;-1.524;2023-02-24T03:01:28;98717.33;;;2.06;100.00
60246;BME280;46107;53.356;-1.524;2023-02-24T03:04:01;98721.98;;;2.28;100.00
60246;BME280;46107;53.356;-1.524;2023-02-24T03:06:31;98711.51;;;2.17;100.00
60246;BME280;46107;53.356;-1.524;2023-02-24T03:09:04;98714.38;;;2.30;100.00
60246;BME280;46107;53.356;-1.524;2023-02-24T03:11:33;98720.59;;;2.06;100.00
60246;BME280;46107;53.356;-1.524;2023-02-24T03:14:01;98716.98;;;1.97;100.00
60246;BME280;46107;53.356;-1.524;2023-02-24T03:16:31;98718.68;;;2.66;100.00
60246;BME280;46107;53.356;-1.524;2023-02-24T03:19:03;98711.80;;;3.02;100.00
60246;BME280;46107;53.356;-1.524;2023-02-24T03:21:35;98694.18;;;3.49;97.62
60246;BME280;46107;53.356;-1.524;2023-02-24T03:24:05;98691.87;;;3.44;97.40
60246;BME280;46107;53.356;-1.524;2023-02-24T03:26:39;98684.50;;;4.31;93.08
60246;BME280;46107;53.356;-1.524;2023-02-24T03:29:12;98679.39;;;3.11;95.46
60246;BME280;46107;53.356;-1.524;2023-02-24T03:31:45;98667.26;;;3.45;97.61
60246;BME280;46107;53.356;-1.524;2023-02-24T03:34:18;98666.74;;;2.76;97.76
60246;BME280;46107;53.356;-1.524;2023-02-24T03:36:48;98662.13;;;2.53;100.00
60246;BME280;46107;53.356;-1.524;2023-02-24T03:39:16;98660.23;;;2.18;100.00
60246;BME280;46107;53.356;-1.524;2023-02-24T03:41:48;98658.49;;;2.80;100.00
60246;BME280;46107;53.356;-1.524;2023-02-24T03:44:17;98650.75;;;2.62;100.00
60246;BME280;46107;53.356;-1.524;2023-02-24T03:46:44;98639.95;;;2.59;100.00
60246;BME280;46107;53.356;-1.524;2023-02-24T03:49:13;98631.83;;;2.56;100.00
60246;BME280;46107;53.356;-1.524;2023-02-24T03:51:42;98626.16;;;2.68;100.00
60246;BME280;46107;53.356;-1.524;2023-02-24T03:54:21;98625.71;;;2.58;100.00
60246;BME280;46107;53.356;-1.524;2023-02-24T03:56:59;98618.63;;;2.86;100.00
60246;BME280;46107;53.356;-1.524;2023-02-24T03:59:38;98620.61;;;2.94;100.00
60246;BME280;46107;53.356;-1.524;2023-02-24T04:02:14;98627.15;;;2.54;100.00
60246;BME280;46107;53.356;-1.524;2023-02-24T04:04:47;98613.36;;;2.67;100.00
60246;BME280;46107;53.356;-1.524;2023-02-24T04:07:20;98604.11;;;3.16;100.00
60246;BME280;46107;53.356;-1.524;2023-02-24T04:09:54;98613.55;;;2.58;100.00
60246;BME280;46107;53.356;-1.524;2023-02-24T04:12:33;98602.76;;;3.77;99.53
60246;BME280;46107;53.356;-1.524;2023-02-24T04:15:08;98604.42;;;3.04;100.00
60246;BME280;46107;53.356;-1.524;2023-02-24T04:17:40;98602.99;;;3.22;100.00
60246;BME280;46107;53.356;-1.524;2023-02-24T04:20:14;98611.40;;;2.39;100.00
60246;BME280;46107;53.356;-1.524;2023-02-24T04:22:45;98607.14;;;2.90;100.00
60246;BME280;46107;53.356;-1.524;2023-02-24T04:25:15;98608.38;;;2.93;100.00
60246;BME280;46107;53.356;-1.524;2023-02-24T04:27:44;98604.92;;;3.21;100.00
60246;BME280;46107;53.356;-1.524;2023-02-24T04:30:13;98608.33;;;2.98;100.00
60246;BME280;46107;53.356;-1.524;2023-02-24T04:32:41;98603.86;;;2.87;100.00
60246;BME280;46107;53.356;-1.524;2023-02-24T04:35:12;98602.27;;;3.20;100.00
60246;BME280;46107;53.356;-1.524;2023-02-24T04:37:40;98598.00;;;3.55;100.00
60246;BME280;46107;53.356;-1.524;2023-02-24T04:40:08;98603.86;;;3.77;99.06
60246;BME280;46107;53.356;-1.524;2023-02-24T04:42:36;98600.20;;;4.06;96.80
60246;BME280;46107;53.356;-1.524;2023-02-24T04:45:04;98590.55;;;3.89;97.59
60246;BME280;46107;53.356;-1.524;2023-02-24T04:47:32;98591.90;;;2.91;100.00
60246;BME280;46107;53.356;-1.524;2023-02-24T04:49:59;98592.62;;;3.47;100.00
60246;BME280;46107;53.356;-1.524;2023-02-24T04:52:27;98582.27;;;2.99;100.00
60246;BME280;46107;53.356;-1.524;2023-02-24T04:55:00;98595.54;;;2.93;100.00
60246;BME280;46107;53.356;-1.524;2023-02-24T04:57:27;98588.28;;;4.11;95.49
60246;BME280;46107;53.356;-1.524;2023-02-24T04:59:59;98593.06;;;3.31;100.00
60246;BME280;46107;53.356;-1.524;2023-02-24T05:02:26;98587.98;;;3.94;99.03
60246;BME280;46107;53.356;-1.524;2023-02-24T05:04:58;98584.21;;;3.50;100.00
60246;BME280;46107;53.356;-1.524;2023-02-24T05:07:26;98585.12;;;3.46;100.00
60246;BME280;46107;53.356;-1.524;2023-02-24T05:09:54;98586.05;;;2.72;100.00
60246;BME280;46107;53.356;-1.524;2023-02-24T05:12:22;98581.31;;;2.82;100.00
60246;BME280;46107;53.356;-1.524;2023-02-24T05:14:50;98582.10;;;4.21;100.00
60246;BME280;46107;53.356;-1.524;2023-02-24T05:17:17;98577.58;;;3.79;98.51
60246;BME280;46107;53.356;-1.524;2023-02-24T05:19:44;98569.21;;;3.55;100.00
60246;BME280;46107;53.356;-1.524;2023-02-24T05:22:12;98572.91;;;2.86;100.00
60246;BME280;46107;53.356;-1.524;2023-02-24T05:24:40;98570.93;;;3.25;100.00
60246;BME280;46107;53.356;-1.524;2023-02-24T05:27:08;98571.26;;;3.94;99.46
60246;BME280;46107;53.356;-1.524;2023-02-24T05:29:36;98568.24;;;3.73;98.55
60246;BME280;46107;53.356;-1.524;2023-02-24T05:32:04;98568.61;;;4.11;95.88
60246;BME280;46107;53.356;-1.524;2023-02-24T05:34:32;98563.61;;;4.25;97.36
60246;BME280;46107;53.356;-1.524;2023-02-24T05:37:01;98561.65;;;3.65;99.57
60246;BME280;46107;53.356;-1.524;2023-02-24T05:39:29;98563.81;;;3.65;98.83
60246;BME280;46107;53.356;-1.524;2023-02-24T05:41:56;98563.86;;;3.07;100.00
60246;BME280;46107;53.356;-1.524;2023-02-24T05:44:25;98554.84;;;2.98;100.00
60246;BME280;46107;53.356;-1.524;2023-02-24T05:46:55;98564.98;;;3.39;100.00
60246;BME280;46107;53.356;-1.524;2023-02-24T05:49:24;98563.25;;;3.51;100.00
60246;BME280;46107;53.356;-1.524;2023-02-24T05:51:54;98565.70;;;3.76;98.31
60246;BME280;46107;53.356;-1.524;2023-02-24T05:54:25;98563.69;;;4.07;100.00
60246;BME280;46107;53.356;-1.524;2023-02-24T05:56:52;98562.07;;;3.99;100.00
60246;BME280;46107;53.356;-1.524;2023-02-24T05:59:20;98562.13;;;3.73;100.00
60246;BME280;46107;53.356;-1.524;2023-02-24T06:01:48;98551.20;;;4.09;98.77
60246;BME280;46107;53.356;-1.524;2023-02-24T06:04:16;98545.49;;;4.35;96.70
60246;BME280;46107;53.356;-1.524;2023-02-24T06:06:43;98543.05;;;4.50;94.57
60246;BME280;46107;53.356;-1.524;2023-02-24T06:09:12;98542.28;;;3.66;100.00
60246;BME280;46107;53.356;-1.524;2023-02-24T06:11:41;98534.80;;;4.04;100.00
60246;BME280;46107;53.356;-1.524;2023-02-24T06:14:10;98536.04;;;3.91;100.00
60246;BME280;46107;53.356;-1.524;2023-02-24T06:16:40;98534.58;;;4.08;96.99
60246;BME280;46107;53.356;-1.524;2023-02-24T06:19:08;98534.43;;;4.08;95.53
60246;BME280;46107;53.356;-1.524;2023-02-24T06:21:38;98534.73;;;5.51;90.17
60246;BME280;46107;53.356;-1.524;2023-02-24T06:24:09;98517.58;;;4.53;92.25
60246;BME280;46107;53.356;-1.524;2023-02-24T06:26:36;98510.96;;;4.06;95.46
60246;BME280;46107;53.356;-1.524;2023-02-24T06:29:04;98510.26;;;3.76;98.93
60246;BME280;46107;53.356;-1.524;2023-02-24T06:31:31;98509.14;;;2.97;100.00
60246;BME280;46107;53.356;-1.524;2023-02-24T06:33:59;98508.03;;;4.33;97.73
60246;BME280;46107;53.356;-1.524;2023-02-24T06:36:26;98509.91;;;4.38;98.80
60246;BME280;46107;53.356;-1.524;2023-02-24T06:39:00;98508.14;;;3.51;99.44
60246;BME280;46107;53.356;-1.524;2023-02-24T06:41:28;98510.20;;;3.32;100.00
60246;BME280;46107;53.356;-1.524;2023-02-24T06:43:55;98503.45;;;4.21;96.64
60246;BME280;46107;53.356;-1.524;2023-02-24T06:46:23;98501.50;;;3.55;96.64
60246;BME280;46107;53.356;-1.524;2023-02-24T06:48:50;98497.97;;;3.89;95.38
60246;BME280;46107;53.356;-1.524;2023-02-24T06:51:18;98503.87;;;2.99;100.00
60246;BME280;46107;53.356;-1.524;2023-02-24T06:53:45;98500.61;;;3.82;97.21
60246;BME280;46107;53.356;-1.524;2023-02-24T06:56:15;98504.19;;;4.03;96.61
60246;BME280;46107;53.356;-1.524;2023-02-24T06:58:44;98509.75;;;4.48;94.60
60246;BME280;46107;53.356;-1.524;2023-02-24T07:01:12;98507.93;;;4.43;92.03
60246;BME280;46107;53.356;-1.524;2023-02-24T07:03:41;98521.32;;;3.24;97.52
60246;BME280;46107;53.356;-1.524;2023-02-24T07:06:09;98515.48;;;3.46;99.49
60246;BME280;46107;53.356;-1.524;2023-02-24T07:08:37;98508.94;;;3.95;95.70
60246;BME280;46107;53.356;-1.524;2023-02-24T07:11:04;98512.68;;;3.92;94.53
60246;BME280;46107;53.356;-1.524;2023-02-24T07:13:33;98515.50;;;3.91;94.57
60246;BME280;46107;53.356;-1.524;2023-02-24T07:16:01;98520.86;;;4.01;94.40
60246;BME280;46107;53.356;-1.524;2023-02-24T07:18:29;98515.20;;;4.52;90.86
60246;BME280;46107;53.356;-1.524;2023-02-24T07:21:00;98512.82;;;4.85;89.08
60246;BME280;46107;53.356;-1.524;2023-02-24T07:23:28;98516.80;;;4.08;93.01
60246;BME280;46107;53.356;-1.524;2023-02-24T07:25:56;98531.98;;;3.88;99.52
60246;BME280;46107;53.356;-1.524;2023-02-24T07:28:23;98536.75;;;4.31;95.28
60246;BME280;46107;53.356;-1.524;2023-02-24T07:30:51;98544.31;;;3.70;100.00
60246;BME280;46107;53.356;-1.524;2023-02-24T07:33:17;98552.29;;;4.23;95.61
60246;BME280;46107;53.356;-1.524;2023-02-24T07:35:49;98555.97;;;4.11;95.23
60246;BME280;46107;53.356;-1.524;2023-02-24T07:38:17;98557.38;;;3.82;97.43
60246;BME280;46107;53.356;-1.524;2023-02-24T07:40:44;98561.76;;;3.79;96.42
60246;BME280;46107;53.356;-1.524;2023-02-24T07:43:12;98560.13;;;4.49;93.89
60246;BME280;46107;53.356;-1.524;2023-02-24T07:45:39;98570.74;;;3.59;97.31
60246;BME280;46107;53.356;-1.524;2023-02-24T07:48:07;98565.66;;;3.66;98.57
60246;BME280;46107;53.356;-1.524;2023-02-24T07:50:35;98560.48;;;4.05;93.81
60246;BME280;46107;53.356;-1.524;2023-02-24T07:53:03;98559.20;;;3.98;95.42
60246;BME280;46107;53.356;-1.524;2023-02-24T07:55:33;98558.21;;;4.21;90.85
60246;BME280;46107;53.356;-1.524;2023-02-24T07:58:02;98555.20;;;4.43;91.40
60246;BME280;46107;53.356;-1.524;2023-02-24T08:00:30;98549.71;;;4.87;87.79
60246;BME280;46107;53.356;-1.524;2023-02-24T08:02:57;98550.00;;;4.65;89.97
60246;BME280;46107;53.356;-1.524;2023-02-24T08:05:25;98556.99;;;4.91;85.90
60246;BME280;46107;53.356;-1.524;2023-02-24T08:07:52;98562.18;;;5.19;85.65
60246;BME280;46107;53.356;-1.524;2023-02-24T08:10:20;98566.89;;;4.64;84.50
60246;BME280;46107;53.356;-1.524;2023-02-24T08:12:48;98567.39;;;5.10;85.76
60246;BME280;46107;53.356;-1.524;2023-02-24T08:15:15;98572.00;;;5.92;81.31
60246;BME280;46107;53.356;-1.524;2023-02-24T08:17:43;98568.28;;;6.07;80.48
60246;BME280;46107;53.356;-1.524;2023-02-24T08:20:12;98573.53;;;5.90;80.64
60246;BME280;46107;53.356;-1.524;2023-02-24T08:22:40;98564.81;;;5.17;84.50
60246;BME280;46107;53.356;-1.524;2023-02-24T08:25:09;98571.57;;;5.26;84.37
60246;BME280;46107;53.356;-1.524;2023-02-24T08:27:37;98573.43;;;5.47;81.62
60246;BME280;46107;53.356;-1.524;2023-02-24T08:30:06;98565.21;;;5.00;84.26
60246;BME280;46107;53.356;-1.524;2023-02-24T08:32:36;98563.83;;;5.42;83.45
60246;BME280;46107;53.356;-1.524;2023-02-24T08:35:07;98559.77;;;5.40;81.85
60246;BME280;46107;53.356;-1.524;2023-02-24T08:37:35;98564.80;;;5.70;82.60
60246;BME280;46107;53.356;-1.524;2023-02-24T08:40:03;98561.44;;;5.51;82.79
60246;BME280;46107;53.356;-1.524;2023-02-24T08:42:31;98572.70;;;5.56;82.31
60246;BME280;46107;53.356;-1.524;2023-02-24T08:44:59;98565.26;;;6.10;80.37
60246;BME280;46107;53.356;-1.524;2023-02-24T08:47:27;98566.23;;;5.96;80.49
60246;BME280;46107;53.356;-1.524;2023-02-24T08:49:55;98570.79;;;5.25;82.64
60246;BME280;46107;53.356;-1.524;2023-02-24T08:52:23;98563.27;;;5.97;82.16
60246;BME280;46107;53.356;-1.524;2023-02-24T08:54:50;98564.59;;;5.64;82.63
60246;BME280;46107;53.356;-1.524;2023-02-24T08:57:18;98560.51;;;5.63;80.26
60246;BME280;46107;53.356;-1.524;2023-02-24T08:59:44;98560.07;;;5.58;80.65
60246;BME280;46107;53.356;-1.524;2023-02-24T09:02:14;98562.51;;;5.90;81.66
60246;BME280;46107;53.356;-1.524;2023-02-24T09:04:43;98554.15;;;6.02;81.47
60246;BME280;46107;53.356;-1.524;2023-02-24T09:07:13;98558.35;;;5.21;83.40
60246;BME280;46107;53.356;-1.524;2023-02-24T09:09:42;98565.26;;;5.98;81.19
60246;BME280;46107;53.356;-1.524;2023-02-24T09:12:11;98567.43;;;5.95;81.25
60246;BME280;46107;53.356;-1.524;2023-02-24T09:14:39;98568.82;;;5.58;81.25
60246;BME280;46107;53.356;-1.524;2023-02-24T09:17:07;98568.42;;;6.32;79.41
60246;BME280;46107;53.356;-1.524;2023-02-24T09:19:37;98564.11;;;5.91;78.50
60246;BME280;46107;53.356;-1.524;2023-02-24T09:22:06;98564.42;;;7.42;73.47
60246;BME280;46107;53.356;-1.524;2023-02-24T09:24:34;98555.18;;;6.90;72.95
60246;BME280;46107;53.356;-1.524;2023-02-24T09:27:02;98561.93;;;6.28;77.42
60246;BME280;46107;53.356;-1.524;2023-02-24T09:29:29;98558.47;;;6.83;74.94
60246;BME280;46107;53.356;-1.524;2023-02-24T09:31:57;98557.20;;;7.03;75.48
60246;BME280;46107;53.356;-1.524;2023-02-24T09:34:25;98560.04;;;7.04;74.10
60246;BME280;46107;53.356;-1.524;2023-02-24T09:36:53;98555.74;;;6.61;73.41
60246;BME280;46107;53.356;-1.524;2023-02-24T09:39:22;98553.09;;;7.52;71.31
60246;BME280;46107;53.356;-1.524;2023-02-24T09:41:51;98550.97;;;6.77;72.92
60246;BME280;46107;53.356;-1.524;2023-02-24T09:44:24;98552.22;;;7.00;72.98
60246;BME280;46107;53.356;-1.524;2023-02-24T09:46:56;98551.90;;;7.08;73.17
60246;BME280;46107;53.356;-1.524;2023-02-24T09:49:32;98547.88;;;7.31;71.94
60246;BME280;46107;53.356;-1.524;2023-02-24T09:52:04;98548.11;;;6.44;73.02
60246;BME280;46107;53.356;-1.524;2023-02-24T09:54:35;98550.54;;;6.28;74.69
60246;BME280;46107;53.356;-1.524;2023-02-24T09:57:10;98564.19;;;6.18;74.93
60246;BME280;46107;53.356;-1.524;2023-02-24T09:59:47;98582.22;;;5.63;77.89
60246;BME280;46107;53.356;-1.524;2023-02-24T10:02:32;98586.84;;;5.62;81.31
60246;BME280;46107;53.356;-1.524;2023-02-24T10:05:07;98589.40;;;5.84;79.73
60246;BME280;46107;53.356;-1.524;2023-02-24T10:07:39;98597.33;;;5.98;80.78
60246;BME280;46107;53.356;-1.524;2023-02-24T10:10:14;98605.16;;;5.55;84.26
60246;BME280;46107;53.356;-1.524;2023-02-24T10:12:43;98608.50;;;5.35;86.71
60246;BME280;46107;53.356;-1.524;2023-02-24T10:15:13;98608.83;;;4.62;88.28
60246;BME280;46107;53.356;-1.524;2023-02-24T10:17:46;98615.10;;;4.89;85.85
60246;BME280;46107;53.356;-1.524;2023-02-24T10:20:18;98617.91;;;5.41;84.73
60246;BME280;46107;53.356;-1.524;2023-02-24T10:22:50;98612.51;;;4.96;87.35
60246;BME280;46107;53.356;-1.524;2023-02-24T10:25:32;98611.22;;;5.40;83.38
60246;BME280;46107;53.356;-1.524;2023-02-24T10:28:14;98608.27;;;5.78;84.33
60246;BME280;46107;53.356;-1.524;2023-02-24T10:30:55;98600.31;;;5.16;88.34
60246;BME280;46107;53.356;-1.524;2023-02-24T10:33:29;98606.36;;;5.27;84.18
60246;BME280;46107;53.356;-1.524;2023-02-24T10:36:09;98603.60;;;6.04;79.79
60246;BME280;46107;53.356;-1.524;2023-02-24T10:38:39;98595.28;;;6.27;78.62
60246;BME280;46107;53.356;-1.524;2023-02-24T10:41:09;98595.37;;;5.23;83.31
60246;BME280;46107;53.356;-1.524;2023-02-24T10:43:37;98590.93;;;5.58;81.26
60246;BME280;46107;53.356;-1.524;2023-02-24T10:46:04;98588.93;;;6.29;80.00
60246;BME280;46107;53.356;-1.524;2023-02-24T10:48:34;98579.23;;;6.74;78.35
60246;BME280;46107;53.356;-1.524;2023-02-24T10:51:08;98589.12;;;5.43;81.58
60246;BME280;46107;53.356;-1.524;2023-02-24T10:53:37;98597.32;;;5.59;84.63
60246;BME280;46107;53.356;-1.524;2023-02-24T10:56:06;98602.21;;;5.81;78.01
60246;BME280;46107;53.356;-1.524;2023-02-24T10:58:35;98607.16;;;6.25;78.60
60246;BME280;46107;53.356;-1.524;2023-02-24T11:01:08;98602.66;;;6.26;73.47
60246;BME280;46107;53.356;-1.524;2023-02-24T11:03:45;98601.39;;;6.52;70.86
60246;BME280;46107;53.356;-1.524;2023-02-24T11:06:22;98603.93;;;6.58;73.88
60246;BME280;46107;53.356;-1.524;2023-02-24T11:08:57;98608.78;;;5.63;78.88
60246;BME280;46107;53.356;-1.524;2023-02-24T11:11:30;98608.42;;;6.29;72.70
60246;BME280;46107;53.356;-1.524;2023-02-24T11:14:01;98609.11;;;5.67;76.67
60246;BME280;46107;53.356;-1.524;2023-02-24T11:16:28;98611.44;;;6.00;74.09
60246;BME280;46107;53.356;-1.524;2023-02-24T11:19:06;98608.43;;;5.86;72.74
60246;BME280;46107;53.356;-1.524;2023-02-24T11:21:37;98604.59;;;6.06;71.60
60246;BME280;46107;53.356;-1.524;2023-02-24T11:24:05;98603.61;;;7.48;68.22
60246;BME280;46107;53.356;-1.524;2023-02-24T11:26:35;98604.14;;;6.51;68.86
60246;BME280;46107;53.356;-1.524;2023-02-24T11:29:16;98608.72;;;6.50;68.26
60246;BME280;46107;53.356;-1.524;2023-02-24T11:32:00;98599.12;;;5.99;66.20
60246;BME280;46107;53.356;-1.524;2023-02-24T11:34:35;98599.78;;;5.48;69.26
60246;BME280;46107;53.356;-1.524;2023-02-24T11:37:13;98599.55;;;5.94;64.71
60246;BME280;46107;53.356;-1.524;2023-02-24T11:39:56;98594.17;;;5.63;66.93
60246;BME280;46107;53.356;-1.524;2023-02-24T11:42:29;98584.08;;;6.55;62.01
60246;BME280;46107;53.356;-1.524;2023-02-24T11:45:03;98585.69;;;5.88;61.74
60246;BME280;46107;53.356;-1.524;2023-02-24T11:47:39;98588.51;;;5.71;65.45
60246;BME280;46107;53.356;-1.524;2023-02-24T11:50:24;98582.27;;;5.57;62.30
60246;BME280;46107;53.356;-1.524;2023-02-24T11:52:55;98575.93;;;6.14;57.63
60246;BME280;46107;53.356;-1.524;2023-02-24T11:55:28;98571.37;;;4.72;62.19
60246;BME280;46107;53.356;-1.524;2023-02-24T11:57:59;98567.24;;;5.44;60.85
60246;BME280;46107;53.356;-1.524;2023-02-24T12:00:33;98567.85;;;4.65;60.85
60246;BME280;46107;53.356;-1.524;2023-02-24T12:03:07;98564.25;;;4.35;61.88
60246;BME280;46107;53.356;-1.524;2023-02-24T12:05:42;98570.26;;;5.31;58.71
60246;BME280;46107;53.356;-1.524;2023-02-24T12:08:17;98571.26;;;5.34;58.35
60246;BME280;46107;53.356;-1.524;2023-02-24T12:10:51;98566.66;;;4.65;60.92
60246;BME280;46107;53.356;-1.524;2023-02-24T12:13:26;98569.61;;;5.67;59.17
60246;BME280;46107;53.356;-1.524;2023-02-24T12:16:01;98567.09;;;5.72;56.43
60246;BME280;46107;53.356;-1.524;2023-02-24T12:18:33;98566.17;;;7.18;54.64
60246;BME280;46107;53.356;-1.524;2023-02-24T12:21:04;98568.34;;;5.70;58.28
60246;BME280;46107;53.356;-1.524;2023-02-24T12:23:36;98569.28;;;5.89;56.15
60246;BME280;46107;53.356;-1.524;2023-02-24T12:26:13;98573.28;;;5.36;58.27
60246;BME280;46107;53.356;-1.524;2023-02-24T12:28:57;98569.92;;;6.48;56.12
60246;BME280;46107;53.356;-1.524;2023-02-24T12:31:35;98574.78;;;5.96;57.86
60246;BME280;46107;53.356;-1.524;2023-02-24T12:34:10;98577.24;;;5.98;56.46
60246;BME280;46107;53.356;-1.524;2023-02-24T12:37:00;98570.15;;;6.29;53.96
60246;BME280;46107;53.356;-1.524;2023-02-24T12:39:42;98573.40;;;5.85;57.57
60246;BME280;46107;53.356;-1.524;2023-02-24T12:42:21;98574.79;;;5.85;54.92
60246;BME280;46107;53.356;-1.524;2023-02-24T12:44:59;98572.08;;;5.66;57.09
60246;BME280;46107;53.356;-1.524;2023-02-24T12:47:39;98568.66;;;5.97;53.03
60246;BME280;46107;53.356;-1.524;2023-02-24T12:50:17;98572.29;;;6.09;54.18
60246;BME280;46107;53.356;-1.524;2023-02-24T12:52:55;98574.84;;;6.03;54.33
60246;BME280;46107;53.356;-1.524;2023-02-24T12:55:29;98578.14;;;6.16;53.68
60246;BME280;46107;53.356;-1.524;2023-02-24T12:58:07;98578.08;;;5.80;53.30
60246;BME280;46107;53.356;-1.524;2023-02-24T13:00:43;98577.18;;;6.32;53.15
60246;BME280;46107;53.356;-1.524;2023-02-24T13:03:25;98581.98;;;5.60;53.97
60246;BME280;46107;53.356;-1.524;2023-02-24T13:06:02;98582.77;;;6.27;52.05
60246;BME280;46107;53.356;-1.524;2023-02-24T13:08:42;98576.68;;;6.65;51.49
60246;BME280;46107;53.356;-1.524;2023-02-24T13:11:28;98574.12;;;6.57;52.67
60246;BME280;46107;53.356;-1.524;2023-02-24T13:14:07;98570.49;;;6.51;51.90
60246;BME280;46107;53.356;-1.524;2023-02-24T13:16:39;98562.85;;;6.05;51.91
60246;BME280;46107;53.356;-1.524;2023-02-24T13:19:18;98564.86;;;6.07;51.94
60246;BME280;46107;53.356;-1.524;2023-02-24T13:21:56;98562.41;;;6.39;51.54